Skip Navigation Links Skip Navigation Links

Current Weather

Brize Norton, United Kingdom

For information only: do not use for flight planning or navigation.
Latest weather
Observation time Tuesday, September 28, 2021 9:50 AM BST
Local time Tuesday, September 28, 2021 10:31 AM BST
Flight conditions Visual Meteorological Conditions
Winds
Wind direction South (190°)
Wind speed 8 mph
Visibility 6.2 mi.
Sky condition
Ceiling 22,000 ft. broken clouds
Cloud layer few clouds 1,700 ft.
Cloud layer broken clouds 22,000 ft.
Temperature 57°F
Dewpoint 50°F
Altimeter 30.00 in.Hg
Derived measurements
Relative humidity 77%
Density altitude 51 ft.
Remarks
No significant changes expected in the next two hours.
METAR EGVN 280850Z 19007KT 9999 FEW017 BKN220 14/10 Q1016 NOSIG RMK BLU BLU

Settings

Location code

InnerDrive.Weather 4.0.6770.0 Release CLR 4.0.30319.42000
Copyright ©2018 Inner Drive Technology. All rights reserved. Portions Copyright ©1986-2018 David Braverman.

Find weather

Site navigation


Skip Navigation Links

Place info

Page info

PayPal - The safer, easier way to pay online!

Return home.

Copyright ©2021 Inner Drive Technology. Purveyors of fine, hand-crafted computer software. Page printed 2021-09-28T09:31:07 UTC.